Time;durP1;ratioP1;P1;durP2;ratioP2;P2;SDS_P1;SDS_P2;PMS_P1;PMS_P2;Temp;Humidity;BMP_temperature;BMP_pressure;BME280_temperature;BME280_humidity;BME280_pressure;Samples;Min_cycle;Max_cycle;Signal;HPM_P1;HPM_P2
2022/06/20 00:01:25;;;;;;;5.68;2.25;;;16.70;99.90;;;;;;4328021;28;10000322;-76
2022/06/20 00:03:51;;;;;;;7.30;1.90;;;16.70;99.90;;;;;;5020112;28;20113;-76
2022/06/20 00:06:21;;;;;;;5.60;2.10;;;16.80;99.90;;;;;;5027253;28;20034;-76
2022/06/20 00:08:51;;;;;;;6.43;2.08;;;16.80;99.90;;;;;;5025885;28;20080;-76
2022/06/20 00:11:21;;;;;;;5.53;1.83;;;16.80;99.90;;;;;;5022479;28;20046;-76
2022/06/20 00:13:52;;;;;;;3.38;2.00;;;16.80;99.90;;;;;;5020138;28;20478;-76
2022/06/20 00:16:19;;;;;;;3.83;1.90;;;16.70;99.90;;;;;;5029278;28;20121;-76
2022/06/20 00:18:46;;;;;;;5.13;1.90;;;16.70;99.90;;;;;;5024896;28;20022;-76
2022/06/20 00:21:14;;;;;;;6.43;2.58;;;16.60;99.90;;;;;;5014440;28;20030;-76
2022/06/20 00:23:40;;;;;;;7.60;2.10;;;16.60;99.90;;;;;;5014726;28;20033;-76
2022/06/20 00:26:07;;;;;;;3.00;1.90;;;16.50;99.90;;;;;;5027244;28;20037;-75
2022/06/20 00:28:32;;;;;;;6.35;2.20;;;16.50;99.90;;;;;;5017911;28;20030;-76
2022/06/20 00:30:59;;;;;;;3.38;2.10;;;16.30;99.90;;;;;;5022373;28;20371;-76
2022/06/20 00:33:24;;;;;;;6.88;2.10;;;16.30;99.90;;;;;;5020867;28;20046;-77
2022/06/20 00:35:50;;;;;;;6.30;2.10;;;16.30;99.90;;;;;;5020862;28;20030;-76
2022/06/20 00:38:18;;;;;;;3.40;1.65;;;16.20;99.90;;;;;;5022658;28;20021;-76
2022/06/20 00:40:48;;;;;;;4.78;1.90;;;16.20;99.90;;;;;;5025895;28;20036;-77
2022/06/20 00:43:23;;;;;;;6.40;1.88;;;16.20;99.90;;;;;;5023385;28;20040;-76
2022/06/20 00:45:52;;;;;;;2.92;1.70;;;16.20;99.90;;;;;;5024449;28;20029;-77
2022/06/20 00:48:31;;;;;;;4.28;1.88;;;16.20;99.90;;;;;;5015724;28;20038;-77
2022/06/20 00:51:02;;;;;;;6.10;2.00;;;16.20;99.90;;;;;;5023232;28;20059;-77
2022/06/20 00:53:38;;;;;;;4.80;2.00;;;16.10;99.90;;;;;;5022190;28;20135;-77
2022/06/20 00:56:14;;;;;;;4.00;1.75;;;16.20;99.90;;;;;;5025390;28;20040;-77
2022/06/20 00:58:49;;;;;;;6.53;1.88;;;16.20;99.90;;;;;;5025254;28;20022;-77
2022/06/20 01:01:20;;;;;;;5.18;2.15;;;16.20;99.90;;;;;;5014943;28;20443;-77
2022/06/20 01:03:51;;;;;;;5.80;2.22;;;16.20;99.90;;;;;;5020181;28;20049;-77
2022/06/20 01:06:28;;;;;;;6.40;2.30;;;16.20;99.90;;;;;;5025773;28;20028;-76
2022/06/20 01:09:05;;;;;;;6.05;3.10;;;16.10;99.90;;;;;;5028607;28;20112;-76
2022/06/20 01:11:53;;;;;;;6.57;3.30;;;16.00;99.90;;;;;;5016300;28;20099;-76
2022/06/20 01:14:24;;;;;;;5.80;3.17;;;15.90;99.90;;;;;;5025777;28;20111;-76
2022/06/20 01:16:56;;;;;;;7.55;3.08;;;15.80;99.90;;;;;;5014608;28;20497;-76
2022/06/20 01:19:50;;;;;;;7.30;3.55;;;15.80;99.90;;;;;;5013661;28;20037;-76
2022/06/20 01:22:38;;;;;;;6.35;4.50;;;15.70;99.90;;;;;;5017787;28;20032;-76
2022/06/20 01:25:17;;;;;;;10.20;5.00;;;15.70;99.90;;;;;;5017560;28;20030;-76
2022/06/20 01:27:45;;;;;;;9.98;5.75;;;15.60;99.90;;;;;;5017724;28;20098;-76
2022/06/20 01:30:11;;;;;;;9.32;6.32;;;15.60;99.90;;;;;;5025334;28;20033;-76
2022/06/20 01:32:38;;;;;;;9.93;6.55;;;15.60;99.90;;;;;;5027637;28;20048;-76
2022/06/20 01:35:08;;;;;;;10.23;6.40;;;15.50;99.90;;;;;;5019652;28;20084;-76
2022/06/20 01:37:35;;;;;;;10.00;7.22;;;;;;;;;;5020381;28;20028;-76
2022/06/20 01:40:06;;;;;;;9.75;7.43;;;15.50;99.90;;;;;;5010732;28;20084;-76
2022/06/20 01:42:33;;;;;;;11.77;7.63;;;15.50;99.90;;;;;;5023273;28;20034;-76
2022/06/20 01:45:01;;;;;;;12.63;8.23;;;15.50;99.90;;;;;;5014084;28;20029;-76
2022/06/20 01:47:27;;;;;;;14.23;8.80;;;15.50;99.90;;;;;;5009938;28;20540;-76
2022/06/20 01:49:59;;;;;;;14.48;8.95;;;15.40;99.90;;;;;;5020717;28;20045;-76
2022/06/20 01:52:35;;;;;;;14.75;10.23;;;15.40;99.90;;;;;;5025888;28;20061;-76
2022/06/20 01:55:11;;;;;;;13.57;9.32;;;15.40;99.90;;;;;;5021436;28;20437;-76
2022/06/20 01:57:40;;;;;;;12.65;9.82;;;15.40;99.90;;;;;;5021948;28;20033;-76
2022/06/20 02:00:22;;;;;;;12.73;10.60;;;15.30;99.90;;;;;;5024352;28;20326;-75
2022/06/20 02:02:59;;;;;;;14.07;11.25;;;15.30;99.90;;;;;;5023638;28;20371;-76
2022/06/20 02:05:29;;;;;;;14.57;11.45;;;15.30;99.90;;;;;;5019494;28;20018;-76
2022/06/20 02:08:00;;;;;;;16.90;11.95;;;15.20;99.90;;;;;;5019558;28;20037;-76
2022/06/20 02:10:30;;;;;;;17.63;11.55;;;15.20;99.90;;;;;;5023027;28;20421;-75
2022/06/20 02:12:59;;;;;;;15.73;10.63;;;15.20;99.90;;;;;;5018362;28;20081;-75
2022/06/20 02:15:26;;;;;;;14.57;11.00;;;15.20;99.90;;;;;;5018435;28;20033;-75
2022/06/20 02:17:52;;;;;;;14.65;10.98;;;15.30;99.90;;;;;;5024629;28;20026;-76
2022/06/20 02:20:28;;;;;;;13.13;11.23;;;15.30;99.90;;;;;;5013209;28;22198;-75
2022/06/20 02:22:56;;;;;;;16.05;11.02;;;15.30;99.90;;;;;;5008358;28;20029;-75
2022/06/20 02:25:27;;;;;;;13.02;11.10;;;15.30;99.90;;;;;;5023583;28;20048;-75
2022/06/20 02:28:06;;;;;;;12.30;10.02;;;15.30;99.90;;;;;;5019123;28;20520;-75
2022/06/20 02:30:31;;;;;;;13.23;10.35;;;15.30;99.90;;;;;;5021256;28;20053;-76
2022/06/20 02:33:23;;;;;;;13.30;10.40;;;15.30;99.90;;;;;;5017184;28;20434;-76
2022/06/20 02:35:49;;;;;;;17.38;11.85;;;15.30;99.90;;;;;;5025170;28;20314;-77
2022/06/20 02:38:16;;;;;;;17.83;11.68;;;15.20;99.90;;;;;;5016398;28;20065;-75
2022/06/20 02:40:42;;;;;;;30.10;10.85;;;14.90;99.90;;;;;;5020865;28;20040;-74
2022/06/20 02:43:13;;;;;;;17.70;9.88;;;14.90;99.90;;;;;;5020628;28;20041;-75
2022/06/20 02:45:40;;;;;;;18.92;10.40;;;;;;;;;;5012503;28;20105;-75
2022/06/20 02:48:08;;;;;;;19.63;10.88;;;14.70;99.90;;;;;;5017572;28;20026;-74
2022/06/20 02:50:42;;;;;;;13.70;9.80;;;14.50;99.90;;;;;;5010401;28;20037;-75
2022/06/20 02:53:27;;;;;;;14.38;9.20;;;14.40;99.90;;;;;;5014827;28;20044;-74
2022/06/20 02:55:55;;;;;;;9.43;7.30;;;14.40;99.90;;;;;;5011108;28;20117;-74
2022/06/20 02:58:25;;;;;;;13.85;8.48;;;14.50;99.90;;;;;;5016084;28;20033;-74
2022/06/20 03:00:58;;;;;;;9.93;6.43;;;14.50;99.90;;;;;;5015920;28;20449;-74
2022/06/20 03:03:30;;;;;;;9.45;7.35;;;14.50;99.90;;;;;;5011469;28;20185;-74
2022/06/20 03:05:56;;;;;;;10.37;6.87;;;14.50;99.90;;;;;;5008144;28;20091;-75
2022/06/20 03:08:23;;;;;;;12.73;7.97;;;14.50;99.90;;;;;;5014799;28;20284;-74
2022/06/20 03:10:53;;;;;;;15.90;8.43;;;14.50;99.90;;;;;;5021195;28;20096;-75
2022/06/20 03:13:21;;;;;;;14.88;7.80;;;14.50;99.90;;;;;;5023408;28;20120;-74
2022/06/20 03:15:49;;;;;;;14.77;8.18;;;14.70;99.90;;;;;;5020758;28;20029;-74
2022/06/20 03:18:16;;;;;;;11.55;5.43;;;14.80;99.90;;;;;;5010360;28;20065;-74
2022/06/20 03:20:43;;;;;;;11.65;5.90;;;14.90;99.90;;;;;;5015349;28;20030;-74
2022/06/20 03:23:19;;;;;;;9.70;6.53;;;14.90;99.90;;;;;;5022069;28;20078;-73
2022/06/20 03:25:45;;;;;;;12.30;6.15;;;14.90;99.90;;;;;;5009979;28;20345;-73
2022/06/20 03:28:14;;;;;;;8.27;6.60;;;14.80;99.90;;;;;;5023965;28;20029;-73
2022/06/20 03:30:40;;;;;;;11.80;6.93;;;14.70;99.90;;;;;;5023469;28;20409;-73
2022/06/20 03:33:11;;;;;;;9.15;6.60;;;14.60;99.90;;;;;;5012845;28;20030;-73
2022/06/20 03:35:39;;;;;;;10.27;5.75;;;14.50;99.90;;;;;;5024769;28;20033;-74
2022/06/20 03:38:07;;;;;;;7.88;5.53;;;14.50;99.90;;;;;;5022481;28;20421;-74
2022/06/20 03:40:35;;;;;;;12.60;5.50;;;14.70;99.90;;;;;;5025855;28;20017;-74
2022/06/20 03:43:01;;;;;;;9.80;5.90;;;14.80;99.90;;;;;;5020989;28;20544;-74
2022/06/20 03:45:32;;;;;;;9.25;6.13;;;14.90;99.90;;;;;;5013604;28;20116;-75
2022/06/20 03:48:26;;;;;;;6.35;5.53;;;15.00;99.90;;;;;;5025035;28;20030;-75
2022/06/20 03:50:58;;;;;;;8.30;5.78;;;15.00;99.90;;;;;;5016928;28;20038;-75
2022/06/20 03:53:44;;;;;;;11.32;6.80;;;15.00;99.90;;;;;;5017537;28;20116;-75
2022/06/20 03:56:20;;;;;;;7.93;6.63;;;15.00;99.90;;;;;;5018082;28;20083;-75
2022/06/20 03:59:03;;;;;;;10.32;6.60;;;14.90;99.90;;;;;;5022607;28;20434;-75
2022/06/20 04:02:11;;;;;;;9.15;6.43;;;15.00;99.90;;;;;;5013279;28;20029;-75
2022/06/20 04:04:40;;;;;;;8.60;6.30;;;15.00;99.90;;;;;;5012715;28;20018;-74
2022/06/20 04:07:18;;;;;;;10.90;6.53;;;15.10;99.90;;;;;;5017139;28;20018;-75
2022/06/20 04:12:54;;;;;;;8.32;6.20;;;15.20;99.90;;;;;;5016180;28;20464;-74
2022/06/20 04:15:31;;;;;;;9.40;5.82;;;15.20;99.90;;;;;;5016479;28;20036;-74
2022/06/20 04:18:27;;;;;;;6.82;5.10;;;15.20;99.90;;;;;;5018778;28;20037;-74
2022/06/20 04:20:57;;;;;;;6.25;4.07;;;15.20;99.90;;;;;;5019185;28;20121;-74
2022/06/20 04:23:43;;;;;;;7.25;4.50;;;15.10;99.90;;;;;;5014026;28;20364;-74
2022/06/20 04:26:29;;;;;;;5.47;4.07;;;15.20;99.90;;;;;;5012659;28;20025;-75
2022/06/20 04:29:09;;;;;;;4.82;4.13;;;15.10;99.90;;;;;;5016776;28;20121;-74
2022/06/20 04:31:50;;;;;;;7.45;3.60;;;15.10;99.90;;;;;;5017199;28;20609;-74
2022/06/20 04:34:20;;;;;;;5.57;4.55;;;15.10;99.90;;;;;;5023025;28;20099;-74
2022/06/20 04:36:57;;;;;;;5.78;4.20;;;15.10;99.90;;;;;;5023868;28;20113;-74
2022/06/20 04:39:28;;;;;;;5.70;4.13;;;15.00;99.90;;;;;;5018596;28;20088;-74
2022/06/20 04:42:06;;;;;;;4.38;3.97;;;15.00;99.90;;;;;;5020724;28;20052;-75
2022/06/20 04:44:57;;;;;;;5.10;4.60;;;15.00;99.90;;;;;;5023678;28;20037;-74
2022/06/20 04:47:37;;;;;;;5.78;5.28;;;14.90;99.90;;;;;;5020191;28;20033;-74
2022/06/20 04:50:05;;;;;;;9.77;5.88;;;14.90;99.90;;;;;;5027664;28;20040;-75
2022/06/20 04:52:31;;;;;;;7.40;6.32;;;14.90;99.90;;;;;;5024468;28;20088;-74
2022/06/20 04:54:58;;;;;;;9.65;6.38;;;14.90;99.90;;;;;;5027360;28;20033;-74
2022/06/20 04:57:26;;;;;;;7.57;6.28;;;14.90;99.90;;;;;;5027933;28;20030;-73
2022/06/20 04:59:56;;;;;;;7.65;6.35;;;14.90;99.90;;;;;;5020011;28;20550;-74
2022/06/20 05:02:24;;;;;;;9.07;6.10;;;14.90;99.90;;;;;;5020587;28;20151;-74
2022/06/20 05:04:54;;;;;;;6.30;5.63;;;14.90;99.90;;;;;;5020769;28;20327;-74
2022/06/20 05:07:29;;;;;;;7.35;6.32;;;14.80;99.90;;;;;;5025746;28;20040;-74
2022/06/20 05:09:58;;;;;;;6.10;5.50;;;14.80;99.90;;;;;;5023047;28;20085;-74
2022/06/20 05:12:42;;;;;;;6.40;5.80;;;14.80;99.90;;;;;;5022233;28;20025;-77
2022/06/20 05:15:39;;;;;;;5.63;5.13;;;14.80;99.90;;;;;;5006282;28;20025;-75
2022/06/20 05:18:26;;;;;;;6.45;5.43;;;14.90;99.90;;;;;;5013589;28;20053;-75
2022/06/20 05:20:57;;;;;;;6.90;5.95;;;14.80;99.90;;;;;;5027075;28;20021;-77
2022/06/20 05:23:43;;;;;;;7.45;6.60;;;14.80;99.90;;;;;;5024628;28;20048;-75
2022/06/20 05:26:14;;;;;;;6.93;6.22;;;14.70;99.90;;;;;;5024602;28;20265;-76
2022/06/20 05:28:41;;;;;;;7.32;6.10;;;14.60;99.90;;;;;;5020829;28;20214;-75
2022/06/20 05:31:07;;;;;;;6.28;5.70;;;14.60;99.90;;;;;;5016151;28;20697;-75
2022/06/20 05:33:55;;;;;;;6.10;4.82;;;14.60;99.90;;;;;;5021454;28;20046;-74
2022/06/20 05:36:26;;;;;;;6.15;4.82;;;14.60;99.90;;;;;;5022275;28;20028;-74
2022/06/20 05:39:01;;;;;;;5.88;5.13;;;14.60;99.90;;;;;;5019387;28;20450;-74
2022/06/20 05:41:26;;;;;;;5.28;4.65;;;14.50;99.90;;;;;;5021967;28;20112;-74
2022/06/20 05:43:52;;;;;;;6.70;4.97;;;14.60;99.90;;;;;;5018540;28;20116;-75
2022/06/20 05:46:59;;;;;;;5.50;3.88;;;14.60;99.90;;;;;;5025497;28;20049;-75
2022/06/20 05:49:33;;;;;;;4.57;4.10;;;14.50;99.90;;;;;;4943956;28;20047;-75
2022/06/20 05:52:00;;;;;;;4.63;3.30;;;14.60;99.90;;;;;;5012211;28;20133;-74
2022/06/20 05:54:33;;;;;;;3.75;3.15;;;14.70;99.90;;;;;;5020818;28;20033;-74
2022/06/20 05:57:00;;;;;;;;;;;14.80;99.90;;;;;;5022617;28;20493;-74
2022/06/20 05:59:41;;;;;;;3.08;2.45;;;14.90;99.90;;;;;;5026020;28;20691;-73
2022/06/20 06:02:15;;;;;;;3.15;2.42;;;15.10;99.90;;;;;;5020485;28;20040;-73
2022/06/20 06:05:18;;;;;;;4.65;2.75;;;15.20;99.90;;;;;;5022213;28;20076;-74
2022/06/20 06:08:02;;;;;;;3.38;2.40;;;15.30;99.90;;;;;;5011483;28;20287;-73
2022/06/20 06:11:04;;;;;;;2.60;2.40;;;15.40;99.90;;;;;;5023713;28;20140;-75
2022/06/20 06:13:37;;;;;;;3.30;1.95;;;15.50;99.90;;;;;;4982390;28;20045;-75
2022/06/20 06:19:38;;;;;;;5.50;2.53;;;15.40;99.90;;;;;;5018290;28;20121;-75
2022/06/20 06:22:26;;;;;;;2.65;2.17;;;15.40;99.90;;;;;;5005106;28;20046;-75
2022/06/20 06:25:15;;;;;;;2.17;1.98;;;15.20;99.90;;;;;;5024826;28;20406;-75
2022/06/20 06:27:41;;;;;;;2.30;2.10;;;15.20;99.90;;;;;;5013528;28;20026;-74
2022/06/20 06:30:20;;;;;;;2.20;2.00;;;15.20;99.90;;;;;;5024191;28;20014;-75
2022/06/20 06:32:58;;;;;;;1.92;1.83;;;15.20;99.90;;;;;;5024285;28;20022;-75
2022/06/20 06:35:34;;;;;;;2.85;2.08;;;15.20;99.90;;;;;;5020175;28;20053;-74
2022/06/20 06:38:03;;;;;;;1.80;1.70;;;15.10;99.90;;;;;;5025499;28;20029;-74
2022/06/20 06:40:37;;;;;;;1.42;1.33;;;15.10;99.90;;;;;;5018291;28;20526;-74
2022/06/20 06:43:14;;;;;;;3.58;1.45;;;15.10;99.90;;;;;;5014581;28;20037;-75
2022/06/20 06:45:41;;;;;;;3.05;2.03;;;15.10;99.90;;;;;;5022322;28;20033;-74
2022/06/20 06:48:20;;;;;;;7.53;1.70;;;15.10;99.90;;;;;;5021857;28;20029;-74
2022/06/20 06:51:02;;;;;;;1.92;1.55;;;15.00;99.90;;;;;;5023642;28;20044;-74
2022/06/20 06:53:52;;;;;;;2.55;1.70;;;15.00;99.90;;;;;;5024088;28;20041;-74
2022/06/20 06:56:34;;;;;;;4.93;1.60;;;15.00;99.90;;;;;;5016845;28;20084;-74
2022/06/20 06:59:27;;;;;;;2.42;1.42;;;15.00;99.90;;;;;;5017439;28;20103;-74
2022/06/20 07:01:57;;;;;;;1.70;0.88;;;15.10;99.90;;;;;;5014932;28;20041;-74
2022/06/20 07:04:57;;;;;;;2.40;0.70;;;15.20;99.90;;;;;;5015849;28;20499;-74
2022/06/20 07:07:34;;;;;;;3.22;0.90;;;15.30;99.90;;;;;;5000441;28;20050;-74
2022/06/20 07:10:00;;;;;;;1.20;1.00;;;15.30;99.90;;;;;;5023135;28;20033;-74
2022/06/20 07:12:42;;;;;;;1.73;1.00;;;15.40;99.90;;;;;;5020089;28;20041;-74
2022/06/20 07:15:20;;;;;;;2.92;0.90;;;15.40;99.90;;;;;;5007732;28;20461;-74
2022/06/20 07:17:50;;;;;;;1.08;0.90;;;15.40;99.90;;;;;;5023676;28;20108;-74
2022/06/20 07:20:18;;;;;;;1.65;0.90;;;15.40;99.90;;;;;;5016110;28;20497;-74
2022/06/20 07:22:47;;;;;;;2.05;0.90;;;15.40;99.90;;;;;;5015624;28;20370;-76
2022/06/20 07:25:27;;;;;;;1.02;0.70;;;15.40;99.90;;;;;;5018192;28;20065;-76
2022/06/20 07:28:21;;;;;;;1.38;0.70;;;15.30;99.90;;;;;;5023621;28;20079;-74
2022/06/20 07:30:55;;;;;;;2.42;0.90;;;15.30;99.90;;;;;;5016716;28;20131;-75
2022/06/20 07:33:35;;;;;;;0.88;0.88;;;15.30;99.90;;;;;;5016381;28;21147;-75
2022/06/20 07:36:06;;;;;;;2.60;0.73;;;15.40;99.90;;;;;;5015696;28;20052;-74
2022/06/20 07:38:36;;;;;;;1.88;0.90;;;15.40;99.90;;;;;;5024299;28;20022;-75
2022/06/20 07:41:14;;;;;;;1.33;0.70;;;15.30;99.90;;;;;;5024621;28;20458;-75
2022/06/20 07:43:44;;;;;;;0.98;0.77;;;15.20;99.90;;;;;;5018360;28;20087;-75
2022/06/20 07:46:18;;;;;;;0.85;0.80;;;15.10;99.90;;;;;;5018206;28;20100;-78
2022/06/20 07:48:45;;;;;;;1.58;0.93;;;15.20;99.90;;;;;;5023123;28;21819;-77
2022/06/20 07:51:15;;;;;;;0.63;0.63;;;15.20;99.90;;;;;;5024845;28;20250;-74
2022/06/20 07:53:55;;;;;;;3.33;0.70;;;15.20;99.90;;;;;;5018336;28;20588;-76
2022/06/20 07:56:29;;;;;;;0.70;0.70;;;15.20;99.90;;;;;;5024038;28;20069;-75
2022/06/20 07:59:02;;;;;;;1.10;0.60;;;15.20;99.90;;;;;;5024944;28;20076;-75
2022/06/20 08:01:39;;;;;;;0.85;0.60;;;15.30;99.90;;;;;;5020680;28;20029;-76
2022/06/20 08:04:09;;;;;;;1.90;0.50;;;15.30;99.90;;;;;;5014348;28;20293;-74
2022/06/20 08:06:43;;;;;;;1.38;0.65;;;15.30;99.90;;;;;;5015293;28;20029;-75
2022/06/20 08:09:27;;;;;;;1.15;0.70;;;15.30;99.90;;;;;;5012528;28;20039;-76
2022/06/20 08:12:01;;;;;;;1.35;0.63;;;15.30;99.90;;;;;;5016188;28;20551;-76
2022/06/20 08:14:42;;;;;;;0.60;0.60;;;15.30;99.90;;;;;;5017388;28;20037;-76
2022/06/20 08:17:10;;;;;;;1.02;0.60;;;15.30;99.90;;;;;;5012542;28;20029;-76
2022/06/20 08:19:39;;;;;;;0.63;0.63;;;15.30;99.90;;;;;;5008731;28;20227;-74
2022/06/20 08:22:09;;;;;;;1.17;0.70;;;15.20;99.90;;;;;;5016981;28;20371;-77
2022/06/20 08:24:43;;;;;;;1.10;0.70;;;15.20;99.90;;;;;;5011082;28;20022;-78
2022/06/20 08:27:15;;;;;;;2.05;0.60;;;15.30;99.90;;;;;;5022251;28;20029;-75
2022/06/20 08:29:52;;;;;;;1.25;0.82;;;15.20;99.90;;;;;;5010759;28;20052;-75
2022/06/20 08:32:31;;;;;;;1.00;0.80;;;15.20;99.90;;;;;;5014818;28;20204;-77
2022/06/20 08:35:16;;;;;;;1.25;0.80;;;15.10;99.90;;;;;;4995176;28;20100;-77
2022/06/20 08:37:49;;;;;;;1.13;1.00;;;15.10;99.90;;;;;;4984961;28;20103;-75
2022/06/20 08:41:03;;;;;;;1.55;0.95;;;15.20;99.90;;;;;;4994448;28;20616;-76
2022/06/20 08:44:04;;;;;;;0.80;0.80;;;15.10;99.90;;;;;;4999867;28;20049;-76
2022/06/20 08:46:48;;;;;;;0.93;0.93;;;14.90;99.90;;;;;;5004684;28;20018;-78
2022/06/20 08:49:35;;;;;;;1.08;1.00;;;14.80;99.90;;;;;;5005338;28;20032;-74
2022/06/20 08:52:13;;;;;;;1.35;1.00;;;14.70;99.90;;;;;;5003949;28;20323;-78
2022/06/20 08:54:50;;;;;;;1.30;1.10;;;14.70;99.90;;;;;;5000767;28;20129;-76
2022/06/20 08:57:28;;;;;;;1.67;1.35;;;14.70;99.90;;;;;;5002648;28;20128;-75
2022/06/20 08:59:57;;;;;;;1.35;1.00;;;14.70;99.90;;;;;;5005413;28;20057;-79
2022/06/20 09:02:36;;;;;;;1.73;1.23;;;14.80;99.90;;;;;;5007677;28;20054;-75
2022/06/20 09:05:21;;;;;;;1.58;1.00;;;14.80;99.90;;;;;;4991139;28;20026;-76
2022/06/20 09:08:12;;;;;;;2.00;1.55;;;14.80;99.90;;;;;;4996394;28;20219;-75
2022/06/20 09:10:56;;;;;;;1.65;1.55;;;14.80;99.90;;;;;;5004628;28;20018;-74
2022/06/20 09:14:06;;;;;;;3.35;1.80;;;14.70;99.90;;;;;;5003221;28;20037;-75
2022/06/20 09:16:34;;;;;;;2.00;1.80;;;14.80;99.90;;;;;;4963727;28;20303;-78
2022/06/20 09:19:15;;;;;;;3.00;1.83;;;14.90;99.90;;;;;;4967222;28;20073;-78
2022/06/20 09:22:18;;;;;;;2.20;1.80;;;14.90;99.90;;;;;;4987289;28;20057;-78
2022/06/20 09:25:02;;;;;;;1.75;1.63;;;14.90;99.90;;;;;;5003434;28;20062;-77
2022/06/20 09:27:59;;;;;;;4.63;2.50;;;14.80;99.90;;;;;;5003301;28;20069;-75
2022/06/20 09:30:49;;;;;;;3.20;2.10;;;14.70;99.90;;;;;;4951172;28;20116;-76
2022/06/20 09:33:39;;;;;;;5.18;2.20;;;14.60;99.90;;;;;;4998371;28;20042;-76
2022/06/20 09:36:17;;;;;;;3.63;1.95;;;14.50;99.90;;;;;;5021569;28;20145;-75
2022/06/20 09:39:08;;;;;;;4.28;2.10;;;14.30;99.90;;;;;;5024293;28;20029;-75
2022/06/20 09:41:38;;;;;;;2.30;1.10;;;14.30;99.90;;;;;;5027520;28;20117;-75
2022/06/20 09:44:38;;;;;;;2.55;0.70;;;14.20;99.90;;;;;;5022172;28;20037;-75
2022/06/20 09:47:25;;;;;;;1.55;0.85;;;14.10;99.90;;;;;;5027077;28;20040;-75
2022/06/20 09:50:15;;;;;;;1.00;0.85;;;13.90;99.90;;;;;;5019609;28;20030;-75
2022/06/20 09:53:03;;;;;;;1.75;0.70;;;13.70;99.90;;;;;;5012634;28;20030;-75
2022/06/20 09:55:48;;;;;;;1.35;0.80;;;13.70;99.90;;;;;;5022922;28;20455;-75
2022/06/20 09:58:22;;;;;;;1.77;0.70;;;13.60;99.90;;;;;;5016432;28;20227;-76
2022/06/20 10:00:54;;;;;;;2.28;0.98;;;13.60;99.90;;;;;;5026686;28;20017;-75
2022/06/20 10:03:42;;;;;;;1.88;0.75;;;13.50;99.90;;;;;;5023750;28;20100;-75
2022/06/20 10:06:22;;;;;;;0.98;0.60;;;13.60;99.90;;;;;;5024296;28;20029;-75
2022/06/20 10:09:02;;;;;;;0.95;0.50;;;13.60;99.90;;;;;;5013129;28;20374;-75
2022/06/20 10:11:35;;;;;;;1.55;0.65;;;13.60;99.90;;;;;;5018509;28;20383;-75
2022/06/20 10:14:35;;;;;;;1.10;0.60;;;13.50;99.90;;;;;;5017258;28;20017;-75
2022/06/20 10:17:31;;;;;;;1.45;0.55;;;13.40;99.90;;;;;;5019955;28;20018;-76
2022/06/20 10:20:05;;;;;;;0.95;0.60;;;13.30;99.90;;;;;;5015758;28;20024;-76
2022/06/20 10:22:53;;;;;;;1.77;0.52;;;13.30;99.90;;;;;;5011956;28;20112;-75
2022/06/20 10:25:39;;;;;;;2.80;0.60;;;13.40;99.90;;;;;;5022866;28;20076;-75
2022/06/20 10:28:13;;;;;;;3.13;0.80;;;13.40;99.90;;;;;;5016364;28;20120;-75
2022/06/20 10:30:48;;;;;;;1.17;0.60;;;13.50;99.90;;;;;;5027503;28;20113;-75
2022/06/20 10:33:31;;;;;;;1.13;0.50;;;13.50;99.90;;;;;;5016124;28;20064;-75
2022/06/20 10:36:00;;;;;;;;;;;13.50;99.90;;;;;;5017008;28;20434;-76
2022/06/20 10:38:54;;;;;;;3.97;0.80;;;13.50;99.90;;;;;;5021100;28;19913;-76
2022/06/20 10:41:39;;;;;;;;;;;13.50;99.90;;;;;;5025945;28;20030;-75
2022/06/20 10:44:22;;;;;;;4.68;1.23;;;13.40;99.90;;;;;;5017575;28;19913;-76
2022/06/20 10:47:07;;;;;;;3.73;1.10;;;13.50;99.90;;;;;;5013706;28;20061;-75
2022/06/20 10:49:59;;;;;;;4.47;1.40;;;13.50;99.90;;;;;;5013004;28;20037;-75
2022/06/20 10:52:53;;;;;;;2.60;1.00;;;13.50;99.90;;;;;;5012259;28;20234;-79
2022/06/20 10:55:36;;;;;;;3.58;1.08;;;13.60;99.90;;;;;;5017825;28;20474;-78
2022/06/20 10:58:20;;;;;;;5.22;1.38;;;13.60;99.90;;;;;;5023879;28;20029;-78
2022/06/20 11:00:52;;;;;;;3.58;1.52;;;13.70;99.90;;;;;;5022975;28;20013;-78
2022/06/20 11:03:20;;;;;;;5.75;1.67;;;13.70;99.90;;;;;;5022664;28;20021;-78
2022/06/20 11:06:08;;;;;;;4.55;1.30;;;13.80;99.90;;;;;;5023452;28;20025;-78
2022/06/20 11:09:04;;;;;;;3.95;1.60;;;14.00;99.90;;;;;;5022681;28;20033;-78
2022/06/20 11:12:05;;;;;;;2.95;1.35;;;14.10;99.90;;;;;;5023586;28;20240;-78
2022/06/20 11:15:04;;;;;;;3.83;1.45;;;14.30;99.90;;;;;;5019801;28;20105;-78
2022/06/20 11:18:24;;;;;;;4.88;1.58;;;14.50;99.90;;;;;;5018567;28;20042;-78
2022/06/20 11:21:10;;;;;;;4.18;1.92;;;14.70;99.90;;;;;;4943943;28;20035;-78
2022/06/20 11:23:48;;;;;;;3.05;1.60;;;14.80;99.90;;;;;;5012943;28;20042;-78
2022/06/20 11:26:27;;;;;;;2.33;1.40;;;15.00;99.90;;;;;;5008925;28;20390;-78
2022/06/20 11:29:47;;;;;;;4.53;1.60;;;15.00;99.90;;;;;;5018785;28;20044;-81
2022/06/20 11:32:58;;;;;;;6.78;1.80;;;15.10;99.90;;;;;;4982495;28;20045;-80
2022/06/20 11:35:52;;;;;;;4.68;1.70;;;15.20;99.90;;;;;;4991788;28;20064;-78
2022/06/20 11:38:43;;;;;;;3.40;1.60;;;15.20;99.90;;;;;;5013836;28;20037;-79
2022/06/20 11:41:20;;;;;;;4.50;1.77;;;15.20;99.90;;;;;;5010184;28;20029;-79
2022/06/20 11:43:49;;;;;;;5.40;1.95;;;15.20;99.90;;;;;;5008898;28;20026;-79
2022/06/20 11:46:22;;;;;;;7.55;2.30;;;15.20;99.90;;;;;;5018072;28;20034;-78
2022/06/20 11:49:12;;;;;;;5.82;1.90;;;15.30;99.90;;;;;;5019798;28;20026;-77
2022/06/20 11:52:17;;;;;;;7.55;1.65;;;15.40;99.90;;;;;;5021600;28;20481;-76
2022/06/20 11:55:04;;;;;;;7.28;2.03;;;15.40;99.90;;;;;;5019553;28;20057;-76
2022/06/20 11:57:44;;;;;;;6.53;1.80;;;15.50;99.90;;;;;;5022685;28;20472;-76
2022/06/20 12:00:20;;;;;;;6.72;1.80;;;15.60;99.90;;;;;;5025777;28;20071;-76
2022/06/20 12:03:12;;;;;;;6.55;1.80;;;15.90;99.90;;;;;;5013556;28;20056;-75
2022/06/20 12:05:54;;;;;;;6.68;2.13;;;16.10;99.90;;;;;;5018705;28;20041;-75
2022/06/20 12:08:32;;;;;;;5.05;1.73;;;16.30;99.90;;;;;;5020865;28;20124;-75
2022/06/20 12:11:07;;;;;;;6.90;2.10;;;16.40;99.90;;;;;;5028227;28;20088;-75
2022/06/20 12:13:58;;;;;;;6.65;2.20;;;16.50;99.90;;;;;;5010150;28;20030;-76
2022/06/20 12:16:47;;;;;;;6.13;1.95;;;16.60;99.90;;;;;;5020175;28;20297;-75
2022/06/20 12:25:04;;;;;;;7.03;2.10;;;16.50;99.90;;;;;;5017416;28;20438;-75
2022/06/20 12:27:30;;;;;;;;;;;16.60;99.90;;;;;;5014542;28;20052;-76
2022/06/20 12:29:55;;;;;;;8.15;1.98;;;16.60;99.90;;;;;;5029298;28;19952;-76
2022/06/20 12:32:29;;;;;;;6.70;1.90;;;16.70;99.90;;;;;;5027000;28;20033;-76
2022/06/20 12:35:10;;;;;;;7.68;2.00;;;16.80;99.90;;;;;;5029086;28;20076;-76
2022/06/20 12:37:47;;;;;;;3.97;1.50;;;16.90;99.90;;;;;;5010291;28;20295;-76
2022/06/20 12:40:38;;;;;;;5.50;1.80;;;17.00;99.90;;;;;;5027820;28;20176;-77
2022/06/20 12:43:36;;;;;;;6.68;2.28;;;17.30;99.90;;;;;;5028470;28;20036;-76
2022/06/20 12:46:16;;;;;;;9.63;2.30;;;17.60;99.90;;;;;;5019393;28;20091;-76
2022/06/20 12:48:47;;;;;;;5.72;1.92;;;18.20;99.90;;;;;;5009782;28;20171;-76
2022/06/20 12:51:37;;;;;;;10.02;2.08;;;18.60;99.90;;;;;;5016138;28;20071;-76
2022/06/20 12:54:21;;;;;;;6.97;1.83;;;19.00;99.90;;;;;;5012581;28;20135;-76
2022/06/20 12:56:56;;;;;;;5.38;1.52;;;19.00;99.90;;;;;;5017154;28;20033;-76
2022/06/20 13:00:03;;;;;;;6.75;1.95;;;19.00;99.90;;;;;;5012317;28;20030;-76
2022/06/20 13:02:54;;;;;;;6.40;2.25;;;18.90;99.90;;;;;;4988572;28;20424;-76
2022/06/20 13:05:44;;;;;;;7.10;2.10;;;18.70;99.90;;;;;;5025669;28;20652;-76
2022/06/20 13:08:47;;;;;;;5.85;1.92;;;18.40;99.90;;;;;;5013172;28;20037;-76
2022/06/20 13:11:21;;;;;;;5.95;2.08;;;18.20;99.90;;;;;;5010213;28;20532;-76
2022/06/20 13:14:24;;;;;;;5.57;2.13;;;17.90;99.90;;;;;;5009031;28;20466;-76
2022/06/20 13:16:58;;;;;;;5.15;1.58;;;17.80;99.90;;;;;;5009852;28;20214;-76
2022/06/20 13:19:37;;;;;;;4.63;2.00;;;17.80;99.90;;;;;;5028154;28;20703;-75
2022/06/20 13:22:19;;;;;;;6.38;2.15;;;17.70;99.90;;;;;;5027313;28;20038;-75
2022/06/20 13:25:17;;;;;;;7.43;2.15;;;17.70;99.90;;;;;;5008468;28;20587;-75
2022/06/20 13:27:56;;;;;;;7.78;2.00;;;17.70;99.90;;;;;;5022762;28;20133;-75
2022/06/20 13:30:58;;;;;;;5.20;1.85;;;17.70;99.90;;;;;;5026975;28;20025;-76
2022/06/20 13:33:42;;;;;;;5.85;2.05;;;17.90;99.90;;;;;;5009177;28;20088;-75
2022/06/20 13:36:45;;;;;;;9.73;2.70;;;18.00;99.90;;;;;;5008132;28;20375;-76
2022/06/20 13:39:45;;;;;;;7.57;2.33;;;18.00;99.90;;;;;;4959957;28;20045;-76
2022/06/20 13:42:29;;;;;;;8.77;2.65;;;18.00;99.90;;;;;;5008846;28;20257;-76
2022/06/20 13:45:08;;;;;;;7.68;2.80;;;18.10;99.90;;;;;;5009086;28;20108;-76
2022/06/20 13:48:01;;;;;;;5.38;2.10;;;18.30;99.90;;;;;;5026075;28;20029;-75
2022/06/20 13:50:53;;;;;;;10.93;2.20;;;18.40;99.90;;;;;;5011354;28;20037;-75
2022/06/20 13:53:37;;;;;;;8.02;2.65;;;18.80;99.90;;;;;;5008082;28;20037;-75
2022/06/20 13:56:33;;;;;;;7.10;2.75;;;19.00;99.90;;;;;;5022897;28;20065;-75